Time;durP1;ratioP1;P1;durP2;ratioP2;P2;SDS_P1;SDS_P2;PMS_P1;PMS_P2;Temp;Humidity;BMP_temperature;BMP_pressure;BME280_temperature;BME280_humidity;BME280_pressure;Samples;Min_cycle;Max_cycle;Signal;HPM_P1;HPM_P2
2020/12/07 00:02:39;;;;;;;21.92;12.50;;;6.80;95.50;;;;;;5056274;28;20125;-79
2020/12/07 00:05:05;;;;;;;19.17;11.50;;;6.80;95.50;;;;;;5063222;28;20052;-78
2020/12/07 00:07:31;;;;;;;19.35;11.15;;;6.80;95.50;;;;;;5071849;28;20090;-79
2020/12/07 00:10:17;;;;;;;20.92;11.73;;;6.90;95.50;;;;;;5070125;28;20048;-77
2020/12/07 00:13:02;;;;;;;19.75;11.65;;;6.80;95.40;;;;;;5061066;28;20460;-78
2020/12/07 00:15:28;;;;;;;18.27;10.70;;;6.80;95.50;;;;;;5069038;28;20039;-78
2020/12/07 00:17:54;;;;;;;16.70;10.35;;;6.70;95.70;;;;;;5066674;28;20040;-82
2020/12/07 00:20:23;;;;;;;18.40;11.30;;;6.70;95.40;;;;;;5063308;28;20104;-82
2020/12/07 00:22:51;;;;;;;16.75;10.70;;;6.80;95.50;;;;;;5058064;28;20033;-81
2020/12/07 00:25:17;;;;;;;18.83;10.95;;;6.70;95.20;;;;;;5058349;28;20036;-82
2020/12/07 00:27:43;;;;;;;18.95;11.35;;;6.80;95.50;;;;;;5061162;28;20407;-81
2020/12/07 00:30:09;;;;;;;17.73;11.52;;;6.70;95.50;;;;;;5067249;28;20051;-81
2020/12/07 00:32:35;;;;;;;16.75;11.00;;;6.80;95.40;;;;;;5069512;28;20036;-81
2020/12/07 00:35:01;;;;;;;15.48;11.23;;;6.70;95.40;;;;;;5061334;28;20032;-80
2020/12/07 00:37:47;;;;;;;;;;;7.10;95.40;;;;;;5068787;28;20404;-82
2020/12/07 00:40:32;;;;;;;17.15;10.63;;;6.70;95.30;;;;;;5048856;28;19924;-82
2020/12/07 00:42:58;;;;;;;18.23;10.13;;;6.60;95.40;;;;;;5065158;28;20060;-83
2020/12/07 00:45:24;;;;;;;16.17;10.82;;;6.70;95.30;;;;;;5074501;28;20116;-82
2020/12/07 00:47:50;;;;;;;17.38;11.20;;;6.60;95.50;;;;;;5068136;28;20128;-82
2020/12/07 00:50:16;;;;;;;17.35;11.60;;;6.70;95.10;;;;;;5057480;28;20063;-82
2020/12/07 00:53:05;;;;;;;18.55;11.45;;;6.80;95.10;;;;;;5069002;28;20487;-82
2020/12/07 00:55:31;;;;;;;19.05;11.05;;;6.60;95.30;;;;;;5033701;28;20044;-83
2020/12/07 00:57:57;;;;;;;17.50;10.73;;;6.60;95.30;;;;;;5053701;28;20063;-83
2020/12/07 01:00:23;;;;;;;18.10;11.23;;;6.60;95.30;;;;;;5066836;28;20033;-83
2020/12/07 01:03:09;;;;;;;22.13;11.45;;;6.70;95.20;;;;;;5054265;28;20403;-82
2020/12/07 01:05:34;;;;;;;22.90;12.10;;;6.60;95.20;;;;;;5074503;28;20108;-81
2020/12/07 01:08:00;;;;;;;18.63;12.13;;;6.60;95.10;;;;;;5073024;28;20115;-80
2020/12/07 01:10:26;;;;;;;21.58;12.75;;;6.60;95.10;;;;;;5057639;28;20029;-80
2020/12/07 01:12:52;;;;;;;23.83;12.82;;;6.60;95.10;;;;;;5046564;28;20047;-81
2020/12/07 01:15:38;;;;;;;20.00;12.77;;;6.60;95.10;;;;;;5060077;28;20045;-81
2020/12/07 01:18:03;;;;;;;27.20;13.82;;;6.60;95.10;;;;;;5064791;28;20045;-81
2020/12/07 01:20:29;;;;;;;24.50;13.68;;;6.60;95.10;;;;;;5069603;28;20045;-81
2020/12/07 01:22:58;;;;;;;24.27;13.20;;;6.50;95.10;;;;;;5062144;28;20033;-81
2020/12/07 01:25:23;;;;;;;22.42;13.65;;;6.50;95.10;;;;;;5056388;28;20036;-81
2020/12/07 01:27:49;;;;;;;23.95;13.73;;;6.50;95.20;;;;;;5071549;28;20066;-82
2020/12/07 01:30:38;;;;;;;25.95;14.00;;;6.50;95.20;;;;;;5062913;28;20052;-81
2020/12/07 01:33:04;;;;;;;32.03;15.57;;;6.50;95.20;;;;;;5072590;28;20479;-81
2020/12/07 01:35:29;;;;;;;26.92;14.68;;;6.60;95.20;;;;;;5063182;28;20040;-82
2020/12/07 01:38:15;;;;;;;41.55;16.75;;;6.50;95.20;;;;;;5068536;28;20056;-82
2020/12/07 01:40:41;;;;;;;24.33;14.23;;;6.50;95.30;;;;;;5060773;28;20025;-81
2020/12/07 01:43:07;;;;;;;34.13;17.17;;;6.50;95.20;;;;;;5071072;28;21814;-82
2020/12/07 01:45:32;;;;;;;33.03;15.27;;;6.50;95.30;;;;;;5065611;28;20036;-81
2020/12/07 01:47:59;;;;;;;31.27;15.57;;;6.70;95.40;;;;;;5072886;28;20044;-82
2020/12/07 01:50:24;;;;;;;34.55;16.67;;;6.50;95.30;;;;;;5053472;28;20044;-82
2020/12/07 01:52:51;;;;;;;32.15;15.50;;;6.50;95.30;;;;;;5066056;28;20361;-81
2020/12/07 01:55:39;;;;;;;32.85;15.77;;;6.50;95.30;;;;;;5043393;28;20049;-82
2020/12/07 01:58:05;;;;;;;31.45;15.73;;;6.50;95.30;;;;;;5064713;28;20436;-82
2020/12/07 02:00:31;;;;;;;40.40;16.75;;;6.40;95.40;;;;;;5042236;28;20044;-81
2020/12/07 02:02:56;;;;;;;29.95;15.00;;;6.40;95.30;;;;;;5064921;28;20112;-81
2020/12/07 02:05:24;;;;;;;33.03;13.95;;;6.40;95.20;;;;;;5065809;28;20032;-81
2020/12/07 02:08:08;;;;;;;36.40;15.73;;;6.40;95.30;;;;;;5056164;28;20045;-81
2020/12/07 02:10:53;;;;;;;30.65;15.20;;;6.40;95.30;;;;;;5045261;28;20045;-82
2020/12/07 02:13:39;;;;;;;33.65;15.10;;;6.40;95.20;;;;;;5055193;28;20074;-82
2020/12/07 02:16:05;;;;;;;31.05;16.10;;;6.40;95.20;;;;;;5068147;28;20426;-81
2020/12/07 02:18:31;;;;;;;28.90;15.30;;;6.40;95.30;;;;;;5059201;28;20043;-82
2020/12/07 02:21:16;;;;;;;34.90;16.30;;;6.40;95.10;;;;;;5044676;28;20404;-81
2020/12/07 02:23:42;;;;;;;31.85;16.50;;;6.40;95.20;;;;;;5068349;28;20036;-82
2020/12/07 02:26:28;;;;;;;33.20;16.00;;;6.70;95.30;;;;;;5054058;28;20041;-81
2020/12/07 02:28:54;;;;;;;32.85;15.70;;;6.40;95.20;;;;;;5072452;28;20404;-81
2020/12/07 02:31:40;;;;;;;34.17;16.20;;;6.40;95.20;;;;;;5058674;28;20135;-81
2020/12/07 02:34:25;;;;;;;31.58;15.50;;;6.40;95.20;;;;;;5035019;28;20458;-81
2020/12/07 02:36:51;;;;;;;26.77;14.38;;;6.40;95.20;;;;;;5060691;28;20037;-81
2020/12/07 02:39:17;;;;;;;31.63;14.75;;;6.40;95.20;;;;;;5068258;28;20552;-81
2020/12/07 02:42:04;;;;;;;38.97;16.38;;;6.40;95.20;;;;;;5038853;28;20053;-81
2020/12/07 02:44:30;;;;;;;42.58;17.70;;;6.30;95.10;;;;;;5067330;28;20040;-80
2020/12/07 02:47:00;;;;;;;33.83;16.27;;;6.30;95.20;;;;;;5073377;28;20039;-80
2020/12/07 02:49:46;;;;;;;39.92;17.30;;;6.30;95.20;;;;;;5070885;28;20442;-80
2020/12/07 02:52:32;;;;;;;44.15;16.95;;;6.30;95.20;;;;;;5037262;28;20055;-80
2020/12/07 02:55:00;;;;;;;45.40;18.77;;;6.20;95.20;;;;;;5058592;28;20147;-81
2020/12/07 02:57:27;;;;;;;40.88;18.05;;;6.20;95.20;;;;;;5058694;28;20538;-80
2020/12/07 03:00:12;;;;;;;36.72;17.75;;;6.20;95.20;;;;;;5068986;28;20062;-80
2020/12/07 03:02:41;;;;;;;42.83;18.60;;;6.30;95.20;;;;;;5061048;28;20115;-80
2020/12/07 03:05:27;;;;;;;41.70;18.38;;;6.20;95.00;;;;;;5068311;28;20037;-80
2020/12/07 03:08:12;;;;;;;33.47;18.45;;;6.20;95.10;;;;;;5072122;28;20483;-80
2020/12/07 03:10:38;;;;;;;35.55;17.27;;;6.30;95.20;;;;;;5057389;28;20056;-80
2020/12/07 03:13:24;;;;;;;34.35;17.75;;;6.20;95.20;;;;;;5057634;28;20223;-82
2020/12/07 03:15:50;;;;;;;33.10;16.38;;;6.30;95.20;;;;;;5070454;28;20079;-81
2020/12/07 03:18:35;;;;;;;31.70;16.52;;;6.20;95.10;;;;;;5066207;28;20411;-81
2020/12/07 03:21:04;;;;;;;29.30;15.93;;;6.10;95.00;;;;;;5060447;28;20060;-81
2020/12/07 03:23:30;;;;;;;25.27;14.23;;;6.20;95.00;;;;;;5064045;28;20032;-81
2020/12/07 03:25:58;;;;;;;28.63;15.20;;;6.20;95.00;;;;;;5061293;28;20072;-81
2020/12/07 03:28:24;;;;;;;25.02;14.88;;;6.20;95.20;;;;;;5046919;28;20060;-81
2020/12/07 03:30:50;;;;;;;24.35;14.05;;;6.20;95.10;;;;;;5062907;28;20064;-81
2020/12/07 03:33:16;;;;;;;27.65;14.02;;;6.20;95.20;;;;;;5070905;28;20451;-81
2020/12/07 03:36:01;;;;;;;23.77;13.07;;;6.20;95.00;;;;;;5047711;28;20127;-80
2020/12/07 03:38:47;;;;;;;23.00;13.93;;;6.10;95.30;;;;;;5049091;28;20076;-81
2020/12/07 03:41:33;;;;;;;20.83;11.93;;;6.10;95.10;;;;;;5035681;28;20060;-81
2020/12/07 03:44:19;;;;;;;20.10;12.30;;;6.20;95.00;;;;;;5050081;28;20041;-81
2020/12/07 03:46:45;;;;;;;18.67;11.30;;;6.40;95.10;;;;;;5051329;28;20598;-81
2020/12/07 03:49:30;;;;;;;20.90;12.50;;;6.10;95.00;;;;;;5037526;28;20052;-81
2020/12/07 03:51:56;;;;;;;20.20;11.80;;;6.10;95.00;;;;;;5051813;28;20040;-81
2020/12/07 03:54:22;;;;;;;17.83;11.63;;;6.20;95.00;;;;;;5030803;28;20033;-79
2020/12/07 03:56:48;;;;;;;19.02;11.23;;;6.10;95.10;;;;;;5047208;28;20401;-79
2020/12/07 03:59:14;;;;;;;15.93;10.90;;;6.10;95.00;;;;;;5050679;28;20040;-80
2020/12/07 04:01:40;;;;;;;18.65;11.10;;;6.30;95.20;;;;;;5050788;28;20045;-81
2020/12/07 04:04:31;;;;;;;20.30;10.98;;;6.10;95.10;;;;;;5037417;28;20041;-82
2020/12/07 04:06:57;;;;;;;19.02;10.98;;;6.10;95.00;;;;;;5034866;28;20037;-79
2020/12/07 04:09:23;;;;;;;17.85;10.88;;;6.20;95.20;;;;;;5051646;28;20037;-78
2020/12/07 04:11:49;;;;;;;18.48;10.77;;;6.10;95.20;;;;;;5034170;28;20029;-78
2020/12/07 04:14:14;;;;;;;16.30;10.05;;;6.10;95.10;;;;;;5051879;28;20029;-82
2020/12/07 04:16:40;;;;;;;16.80;10.55;;;6.00;95.20;;;;;;5050468;28;20491;-81
2020/12/07 04:19:06;;;;;;;15.55;10.27;;;6.10;95.20;;;;;;5051604;28;20033;-81
2020/12/07 04:21:32;;;;;;;16.65;10.40;;;6.10;95.10;;;;;;5052066;28;20113;-80
2020/12/07 04:23:57;;;;;;;16.80;9.85;;;6.10;95.30;;;;;;5052177;28;20048;-80
2020/12/07 04:26:23;;;;;;;18.35;10.27;;;6.10;95.20;;;;;;5050352;28;20033;-80
2020/12/07 04:28:50;;;;;;;21.67;10.43;;;6.10;95.20;;;;;;5051584;28;20396;-81
2020/12/07 04:31:16;;;;;;;17.45;10.48;;;6.10;95.20;;;;;;5050123;28;20112;-80
2020/12/07 04:34:02;;;;;;;15.95;9.57;;;6.10;95.30;;;;;;5023614;28;20045;-79
2020/12/07 04:36:27;;;;;;;22.92;10.20;;;6.20;95.30;;;;;;5051768;28;20044;-80
2020/12/07 04:39:13;;;;;;;16.42;9.85;;;6.10;95.20;;;;;;5036451;28;20044;-81
2020/12/07 04:41:41;;;;;;;18.20;9.05;;;6.10;95.20;;;;;;5036483;28;20033;-81
2020/12/07 04:44:27;;;;;;;17.65;10.10;;;6.10;95.20;;;;;;5054864;28;20052;-82
2020/12/07 04:47:17;;;;;;;15.05;8.77;;;6.00;95.30;;;;;;5028705;28;20162;-81
2020/12/07 04:49:43;;;;;;;14.15;8.57;;;6.00;95.10;;;;;;5055242;28;20037;-78
2020/12/07 04:52:09;;;;;;;14.57;8.07;;;6.20;95.20;;;;;;5055095;28;20116;-78
2020/12/07 04:54:37;;;;;;;13.88;7.88;;;6.00;95.20;;;;;;5055849;28;20039;-78
2020/12/07 04:57:25;;;;;;;11.43;7.70;;;6.00;95.20;;;;;;5040472;28;20056;-78
2020/12/07 04:59:52;;;;;;;9.52;6.55;;;6.00;95.00;;;;;;5055077;28;20392;-78
2020/12/07 05:02:18;;;;;;;15.57;7.95;;;6.00;95.10;;;;;;5053731;28;20033;-78
2020/12/07 05:04:44;;;;;;;8.70;6.15;;;6.00;95.10;;;;;;5055256;28;20373;-78
2020/12/07 05:07:11;;;;;;;9.60;6.60;;;6.00;95.20;;;;;;5054952;28;20033;-78
2020/12/07 05:09:38;;;;;;;11.73;7.13;;;6.00;95.00;;;;;;5053540;28;20044;-78
2020/12/07 05:12:11;;;;;;;9.25;6.47;;;6.00;95.00;;;;;;5054774;28;20029;-78
2020/12/07 05:14:37;;;;;;;8.57;6.10;;;6.00;95.00;;;;;;5054830;28;20086;-78
2020/12/07 05:17:02;;;;;;;12.70;6.75;;;5.90;94.80;;;;;;5054302;28;20057;-78
2020/12/07 05:19:49;;;;;;;7.97;6.13;;;5.90;94.90;;;;;;5040310;28;20049;-78
2020/12/07 05:22:39;;;;;;;8.68;6.50;;;5.80;94.90;;;;;;5039795;28;20041;-78
2020/12/07 05:25:06;;;;;;;9.35;6.60;;;5.80;95.10;;;;;;5054745;28;20108;-77
2020/12/07 05:27:33;;;;;;;10.15;7.28;;;5.80;95.10;;;;;;5054341;28;20481;-77
2020/12/07 05:32:48;;;;;;;15.48;8.98;;;5.80;94.90;;;;;;5051694;28;20098;-81
2020/12/07 05:35:38;;;;;;;16.10;7.65;;;6.10;95.00;;;;;;5040041;28;20083;-80
2020/12/07 05:38:05;;;;;;;11.18;7.90;;;5.80;94.90;;;;;;5052853;28;20045;-81
2020/12/07 05:40:31;;;;;;;12.00;8.30;;;5.80;94.90;;;;;;5054410;28;20041;-80
2020/12/07 05:43:00;;;;;;;13.35;7.97;;;5.80;94.70;;;;;;5053177;28;20032;-80
2020/12/07 05:45:26;;;;;;;12.35;8.45;;;5.80;94.90;;;;;;5052989;28;20029;-80
2020/12/07 05:47:53;;;;;;;11.95;7.78;;;5.80;94.90;;;;;;5054164;28;20090;-80
2020/12/07 05:50:45;;;;;;;12.65;8.48;;;5.70;94.90;;;;;;5039478;28;20049;-80
2020/12/07 05:53:11;;;;;;;13.32;8.95;;;5.80;94.90;;;;;;5053805;28;20477;-81
2020/12/07 05:55:37;;;;;;;12.00;8.40;;;5.70;94.70;;;;;;5052588;28;20048;-81
2020/12/07 05:58:05;;;;;;;13.93;9.02;;;5.70;94.80;;;;;;5053925;28;20400;-80
2020/12/07 06:00:33;;;;;;;14.73;8.65;;;5.70;94.90;;;;;;5053496;28;20040;-80
2020/12/07 06:03:01;;;;;;;13.93;9.27;;;5.70;94.90;;;;;;5052908;28;20098;-80
2020/12/07 06:05:47;;;;;;;14.65;9.20;;;5.70;94.70;;;;;;5052812;28;20095;-80
2020/12/07 06:08:21;;;;;;;14.25;8.82;;;5.70;94.90;;;;;;5054063;28;20415;-80
2020/12/07 06:10:59;;;;;;;13.02;8.30;;;5.80;94.90;;;;;;5053574;28;20066;-77
2020/12/07 06:13:26;;;;;;;12.40;8.73;;;5.70;94.90;;;;;;5053967;28;20041;-80
2020/12/07 06:15:54;;;;;;;16.58;9.70;;;5.80;94.80;;;;;;5053314;28;20053;-80
2020/12/07 06:18:43;;;;;;;14.32;9.07;;;5.60;94.80;;;;;;5052567;28;20462;-80
2020/12/07 06:21:19;;;;;;;13.63;8.82;;;5.60;94.90;;;;;;5053749;28;20037;-79
2020/12/07 06:24:05;;;;;;;12.07;8.32;;;5.60;94.80;;;;;;5052250;28;20204;-80
2020/12/07 06:26:30;;;;;;;15.63;9.45;;;5.60;95.30;;;;;;5040984;28;20123;-77
2020/12/07 06:28:56;;;;;;;14.75;9.32;;;5.70;95.00;;;;;;5053398;28;20120;-77
2020/12/07 06:31:45;;;;;;;14.30;9.77;;;5.60;95.00;;;;;;5038815;28;20060;-76
2020/12/07 06:34:12;;;;;;;13.75;9.48;;;5.60;95.00;;;;;;5051708;28;20037;-77
2020/12/07 06:36:38;;;;;;;16.00;9.38;;;5.50;94.80;;;;;;5053313;28;20033;-77
2020/12/07 06:39:10;;;;;;;15.75;9.80;;;5.60;94.90;;;;;;5053042;28;20075;-77
2020/12/07 06:41:58;;;;;;;16.25;10.35;;;5.60;94.90;;;;;;5028341;28;20076;-77
2020/12/07 06:44:24;;;;;;;15.20;8.98;;;5.60;95.00;;;;;;5052905;28;20033;-77
2020/12/07 06:47:20;;;;;;;14.80;8.80;;;5.60;95.10;;;;;;5051863;28;20072;-77
2020/12/07 06:50:13;;;;;;;12.07;8.13;;;5.60;95.00;;;;;;5038746;28;20051;-77
2020/12/07 06:52:41;;;;;;;11.15;7.75;;;5.60;94.80;;;;;;5052201;28;20036;-77
2020/12/07 06:55:11;;;;;;;11.15;7.82;;;5.60;94.70;;;;;;5052648;28;20029;-77
2020/12/07 06:57:51;;;;;;;11.27;7.93;;;5.50;94.80;;;;;;5035316;28;20079;-77
2020/12/07 07:00:40;;;;;;;11.73;7.53;;;5.50;94.80;;;;;;5051616;28;20488;-85
2020/12/07 07:03:25;;;;;;;11.18;7.80;;;5.50;94.80;;;;;;5038193;28;20052;-79
2020/12/07 07:05:51;;;;;;;8.48;6.95;;;5.50;95.00;;;;;;5034419;28;20435;-78
2020/12/07 07:08:37;;;;;;;9.07;7.45;;;5.50;94.80;;;;;;5024492;28;20060;-78
2020/12/07 07:11:08;;;;;;;9.95;7.50;;;5.50;94.80;;;;;;5035522;28;20045;-78
2020/12/07 07:13:34;;;;;;;12.55;7.60;;;5.50;94.80;;;;;;5052083;28;20033;-78
2020/12/07 07:16:00;;;;;;;10.93;7.47;;;5.50;94.90;;;;;;5052873;28;20477;-78
2020/12/07 07:18:26;;;;;;;9.48;6.93;;;5.50;94.90;;;;;;5052858;28;20028;-78
2020/12/07 07:20:59;;;;;;;9.90;7.32;;;5.50;94.70;;;;;;5035151;28;20044;-78
2020/12/07 07:23:25;;;;;;;13.45;7.88;;;5.50;94.80;;;;;;5053251;28;20499;-79
2020/12/07 07:26:07;;;;;;;11.40;7.88;;;5.50;94.90;;;;;;5052800;28;20139;-81
2020/12/07 07:28:53;;;;;;;11.52;7.40;;;5.50;94.80;;;;;;5040350;28;20044;-82
2020/12/07 07:31:19;;;;;;;10.07;7.20;;;5.40;94.70;;;;;;5052654;28;20470;-78
2020/12/07 07:33:47;;;;;;;11.95;7.10;;;5.50;94.90;;;;;;5052776;28;20473;-83
2020/12/07 07:36:24;;;;;;;9.43;6.93;;;5.50;94.80;;;;;;5034153;28;20111;-81
2020/12/07 07:38:59;;;;;;;11.40;7.60;;;5.40;94.80;;;;;;5042892;28;20053;-81
2020/12/07 07:41:46;;;;;;;8.87;7.10;;;5.40;94.70;;;;;;5039194;28;20053;-81
2020/12/07 07:44:32;;;;;;;10.75;6.82;;;5.40;94.80;;;;;;5024025;28;20049;-81
2020/12/07 07:47:00;;;;;;;10.15;7.55;;;5.50;94.80;;;;;;5051274;28;20535;-81
2020/12/07 07:49:37;;;;;;;9.77;7.70;;;5.40;94.80;;;;;;5051058;28;20064;-83
2020/12/07 07:52:57;;;;;;;10.32;7.40;;;5.40;94.90;;;;;;5051229;28;20392;-82
2020/12/07 08:17:17;;;;;;;10.70;7.53;;;5.50;94.80;;;;;;5061303;28;20473;-77
2020/12/07 08:20:09;;;;;;;10.90;7.85;;;5.40;94.80;;;;;;5049843;28;20048;-79
2020/12/07 08:22:35;;;;;;;10.38;7.25;;;5.50;94.70;;;;;;5063829;28;20044;-80
2020/12/07 08:25:03;;;;;;;10.38;8.02;;;5.50;94.80;;;;;;5031869;28;20045;-80
2020/12/07 08:27:48;;;;;;;11.07;7.30;;;5.60;94.80;;;;;;5046388;28;20045;-81
2020/12/07 08:30:15;;;;;;;11.50;7.30;;;5.50;94.90;;;;;;5056192;28;20040;-81
2020/12/07 08:33:11;;;;;;;8.57;6.88;;;5.60;94.80;;;;;;5022221;28;20045;-80
2020/12/07 08:35:37;;;;;;;9.02;7.22;;;5.50;94.70;;;;;;5054306;28;20061;-80
2020/12/07 08:38:03;;;;;;;9.35;6.93;;;5.60;94.60;;;;;;5064795;28;20040;-80
2020/12/07 08:40:29;;;;;;;10.57;7.05;;;5.60;94.80;;;;;;5072426;28;20041;-80
2020/12/07 08:42:55;;;;;;;11.65;7.15;;;5.70;94.80;;;;;;5065926;28;20032;-80
2020/12/07 08:45:44;;;;;;;12.07;8.02;;;5.60;94.80;;;;;;5029526;28;20041;-80
2020/12/07 08:48:13;;;;;;;11.05;7.60;;;5.70;94.90;;;;;;5067418;28;20097;-80
2020/12/07 08:50:39;;;;;;;10.10;7.20;;;5.70;95.10;;;;;;5062433;28;20068;-80
2020/12/07 08:53:05;;;;;;;10.48;7.63;;;5.70;94.80;;;;;;5068372;28;20498;-80
2020/12/07 08:55:31;;;;;;;11.57;7.85;;;5.80;94.90;;;;;;5062391;28;20116;-80
2020/12/07 08:57:59;;;;;;;10.27;7.68;;;5.80;94.90;;;;;;5058637;28;20045;-80
2020/12/07 09:00:45;;;;;;;10.30;7.78;;;5.80;94.90;;;;;;5060479;28;20067;-80
2020/12/07 09:03:13;;;;;;;11.18;7.35;;;5.80;94.90;;;;;;5063775;28;20033;-79
2020/12/07 09:06:06;;;;;;;16.85;7.45;;;6.00;95.00;;;;;;5054787;28;20044;-80
2020/12/07 09:08:51;;;;;;;9.18;6.68;;;5.90;94.90;;;;;;5042241;28;20090;-80
2020/12/07 09:11:18;;;;;;;12.00;7.75;;;5.90;94.80;;;;;;5056049;28;20416;-80
2020/12/07 09:13:44;;;;;;;10.98;7.53;;;5.90;94.90;;;;;;5059380;28;20059;-81
2020/12/07 09:16:10;;;;;;;13.70;8.70;;;5.90;94.90;;;;;;5045134;28;20030;-81
2020/12/07 09:18:57;;;;;;;13.07;8.20;;;5.90;94.90;;;;;;5040301;28;20040;-78
2020/12/07 09:21:22;;;;;;;11.80;8.05;;;5.90;94.90;;;;;;5044895;28;20044;-78
2020/12/07 09:23:48;;;;;;;13.02;8.07;;;6.00;94.90;;;;;;5043026;28;20400;-78
2020/12/07 09:26:14;;;;;;;13.38;8.10;;;5.90;94.90;;;;;;5017500;28;20470;-78
2020/12/07 09:28:40;;;;;;;12.10;8.23;;;6.00;95.00;;;;;;5051658;28;20037;-78
2020/12/07 09:31:06;;;;;;;10.88;7.45;;;6.00;94.90;;;;;;5058263;28;20045;-78
2020/12/07 09:33:52;;;;;;;11.25;8.15;;;6.00;95.00;;;;;;5035454;28;20484;-78
2020/12/07 09:36:18;;;;;;;10.68;7.90;;;6.00;94.90;;;;;;5049611;28;20163;-78
2020/12/07 09:39:05;;;;;;;10.32;7.07;;;6.00;95.00;;;;;;5050673;28;20045;-78
2020/12/07 09:41:31;;;;;;;11.27;7.70;;;6.00;94.90;;;;;;5052557;28;20033;-78
2020/12/07 09:44:00;;;;;;;11.13;7.63;;;6.20;95.00;;;;;;5019253;28;20041;-78
2020/12/07 09:46:45;;;;;;;10.55;7.65;;;6.10;95.10;;;;;;5036833;28;20041;-77
2020/12/07 09:49:32;;;;;;;10.65;7.72;;;6.10;95.20;;;;;;5050260;28;20404;-77
2020/12/07 09:55:33;;;;;;;10.15;6.85;;;6.20;95.20;;;;;;5039880;28;20049;-78
2020/12/07 09:58:04;;;;;;;10.40;7.38;;;6.20;95.20;;;;;;5012427;28;20497;-77
2020/12/07 10:00:30;;;;;;;8.55;6.47;;;6.20;95.20;;;;;;5052090;28;20082;-77
2020/12/07 10:03:16;;;;;;;14.45;7.38;;;6.20;95.20;;;;;;5053034;28;20048;-77
2020/12/07 10:06:03;;;;;;;10.60;7.30;;;6.20;95.20;;;;;;5049806;28;20441;-77
2020/12/07 10:08:32;;;;;;;9.95;7.20;;;6.30;95.30;;;;;;5016581;28;20072;-76
2020/12/07 10:10:57;;;;;;;11.00;7.15;;;6.30;95.30;;;;;;5038642;28;20033;-76
2020/12/07 10:13:23;;;;;;;12.80;7.90;;;6.30;95.20;;;;;;5051173;28;20496;-76
2020/12/07 10:15:49;;;;;;;10.77;7.30;;;6.40;95.20;;;;;;5050605;28;20477;-76
2020/12/07 10:18:15;;;;;;;13.63;7.20;;;6.40;95.30;;;;;;5053825;28;20098;-76
2020/12/07 10:20:40;;;;;;;9.02;6.70;;;6.40;95.20;;;;;;5050556;28;20496;-76
2020/12/07 10:23:06;;;;;;;9.75;6.57;;;6.50;95.20;;;;;;5045400;28;20037;-76
2020/12/07 10:25:32;;;;;;;8.38;6.20;;;6.50;95.10;;;;;;5052465;28;20037;-77
2020/12/07 10:28:00;;;;;;;8.25;6.03;;;6.50;95.10;;;;;;5035923;28;20481;-77
2020/12/07 10:30:29;;;;;;;8.52;5.15;;;6.60;95.10;;;;;;5052199;28;20086;-76
2020/12/07 10:32:55;;;;;;;9.82;5.70;;;6.80;95.20;;;;;;5045534;28;20045;-76
2020/12/07 10:35:21;;;;;;;8.15;5.38;;;6.70;95.10;;;;;;5034676;28;20086;-78
2020/12/07 10:37:46;;;;;;;11.30;5.22;;;6.70;95.10;;;;;;5053150;28;20037;-78
2020/12/07 10:40:12;;;;;;;9.15;3.97;;;6.80;95.20;;;;;;5052207;28;20056;-77
2020/12/07 10:42:38;;;;;;;7.22;3.55;;;6.80;95.10;;;;;;5052905;28;20496;-78
2020/12/07 10:45:04;;;;;;;8.48;3.00;;;6.80;95.10;;;;;;5048158;28;20094;-77
2020/12/07 10:47:30;;;;;;;8.50;3.03;;;6.90;95.20;;;;;;5052572;28;20055;-77
2020/12/07 10:50:25;;;;;;;11.45;2.45;;;7.00;95.20;;;;;;5050947;28;20032;-77
2020/12/07 10:52:51;;;;;;;6.13;2.20;;;7.00;95.10;;;;;;5036511;28;20044;-77
2020/12/07 10:55:17;;;;;;;8.95;2.05;;;7.00;95.10;;;;;;5052090;28;20283;-77
2020/12/07 10:57:42;;;;;;;7.72;2.30;;;7.10;95.00;;;;;;5052920;28;20067;-77
2020/12/07 11:00:11;;;;;;;6.25;2.08;;;7.00;95.00;;;;;;5034610;28;20045;-77
2020/12/07 11:02:56;;;;;;;6.32;1.83;;;7.10;95.00;;;;;;5046623;28;20558;-77
2020/12/07 11:05:22;;;;;;;13.32;2.40;;;7.10;95.00;;;;;;5051588;28;20033;-78
2020/12/07 11:11:30;;;;;;;;;;;;;;;;;;;;;
2020/12/07 11:14:05;;;;;;;7.55;1.65;;;7.30;95.00;;;;;;5050755;28;20045;-80
2020/12/07 11:17:00;;;;;;;13.50;2.30;;;7.10;94.80;;;;;;5036772;28;20135;-80
2020/12/07 11:19:28;;;;;;;5.90;1.63;;;7.30;95.00;;;;;;5038305;28;20067;-80
2020/12/07 11:21:54;;;;;;;7.53;2.05;;;7.20;95.00;;;;;;5035054;28;20136;-84
2020/12/07 11:24:20;;;;;;;7.63;1.70;;;7.30;95.00;;;;;;5051198;28;20104;-83
2020/12/07 11:26:46;;;;;;;10.80;2.20;;;7.30;94.90;;;;;;5051572;28;20090;-84
2020/12/07 11:29:12;;;;;;;5.28;1.63;;;7.40;94.90;;;;;;5051949;28;20033;-84
2020/12/07 11:31:38;;;;;;;5.78;1.30;;;7.30;94.80;;;;;;5052209;28;20051;-83
2020/12/07 11:34:23;;;;;;;4.70;1.60;;;7.30;94.80;;;;;;5052131;28;20492;-84
2020/12/07 11:36:59;;;;;;;9.15;1.70;;;7.40;94.80;;;;;;5052759;28;20061;-80
2020/12/07 11:44:18;;;;;;;5.85;1.40;;;7.40;94.80;;;;;;5052412;28;20033;-81
2020/12/07 11:46:48;;;;;;;5.45;1.80;;;7.40;94.70;;;;;;5051125;28;20037;-81
2020/12/07 11:49:48;;;;;;;6.50;1.40;;;7.40;94.80;;;;;;5051355;28;20040;-83
2020/12/07 11:52:35;;;;;;;6.68;1.63;;;7.40;94.60;;;;;;5033424;28;20087;-82
2020/12/07 11:55:00;;;;;;;10.50;1.60;;;7.40;94.60;;;;;;5041716;28;20069;-81
2020/12/07 11:57:26;;;;;;;5.40;1.30;;;7.40;94.60;;;;;;5031093;28;20037;-81
2020/12/07 11:59:55;;;;;;;4.88;1.20;;;7.40;94.70;;;;;;5050003;28;20094;-82
2020/12/07 12:02:21;;;;;;;8.38;1.45;;;7.70;94.70;;;;;;5049898;28;20473;-82
2020/12/07 12:05:07;;;;;;;4.35;1.15;;;7.40;94.60;;;;;;5050195;28;20040;-82
2020/12/07 12:07:32;;;;;;;9.38;1.50;;;7.40;94.50;;;;;;5051146;28;20040;-81
2020/12/07 12:09:59;;;;;;;5.30;1.30;;;7.50;94.70;;;;;;5043446;28;20069;-81
2020/12/07 12:12:45;;;;;;;5.88;1.42;;;7.40;94.60;;;;;;5035558;28;20045;-81
2020/12/07 12:15:31;;;;;;;5.35;1.40;;;7.40;94.80;;;;;;5036988;28;20059;-81
2020/12/07 12:17:56;;;;;;;6.28;1.42;;;7.50;94.80;;;;;;5050616;28;20038;-81
2020/12/07 12:20:22;;;;;;;4.57;1.52;;;7.50;94.90;;;;;;5048503;28;20052;-81
2020/12/07 12:22:48;;;;;;;3.95;1.40;;;7.50;94.80;;;;;;5023143;28;20036;-81
2020/12/07 12:25:14;;;;;;;3.03;1.20;;;7.40;94.50;;;;;;5050804;28;20033;-82
2020/12/07 12:28:00;;;;;;;7.15;1.50;;;7.40;94.70;;;;;;5048999;28;20412;-82
2020/12/07 12:30:25;;;;;;;8.75;1.85;;;7.40;94.60;;;;;;5060082;28;20029;-81
2020/12/07 12:33:11;;;;;;;5.78;1.33;;;7.40;95.10;;;;;;5038607;28;20075;-81
2020/12/07 12:35:57;;;;;;;5.93;1.50;;;7.50;94.80;;;;;;5023369;28;20041;-81
2020/12/07 12:38:23;;;;;;;8.65;1.33;;;7.40;94.80;;;;;;5050824;28;20041;-81
2020/12/07 12:40:48;;;;;;;11.10;1.52;;;7.50;94.70;;;;;;5021779;28;20495;-81
2020/12/07 12:43:14;;;;;;;4.97;1.40;;;7.50;94.90;;;;;;5035560;28;20082;-81
2020/12/07 12:45:40;;;;;;;2.50;1.10;;;7.40;94.70;;;;;;5044223;28;20076;-81
2020/12/07 12:48:26;;;;;;;10.77;1.88;;;7.50;94.80;;;;;;5050759;28;20120;-81
2020/12/07 12:50:52;;;;;;;10.98;1.70;;;7.50;94.80;;;;;;5050524;28;20044;-81
2020/12/07 12:53:18;;;;;;;5.75;1.58;;;7.50;94.70;;;;;;5051714;28;20033;-81
2020/12/07 12:55:44;;;;;;;4.07;1.70;;;7.50;94.70;;;;;;5052068;28;20029;-81
2020/12/07 12:58:09;;;;;;;6.07;1.50;;;7.50;94.70;;;;;;5051696;28;20370;-81
2020/12/07 13:00:35;;;;;;;7.95;1.55;;;7.60;94.90;;;;;;5049482;28;20037;-81
2020/12/07 13:03:21;;;;;;;4.68;1.23;;;7.50;94.70;;;;;;5025267;28;20386;-80
2020/12/07 13:05:53;;;;;;;8.07;1.77;;;7.50;94.60;;;;;;5036458;28;20040;-77
2020/12/07 13:08:21;;;;;;;7.55;1.88;;;7.50;94.60;;;;;;5052968;28;20044;-80
2020/12/07 13:11:08;;;;;;;;;;;7.60;94.70;;;;;;5039139;28;20047;-79
2020/12/07 13:13:36;;;;;;;9.55;2.10;;;7.60;94.40;;;;;;5055152;28;19916;-79
2020/12/07 13:16:36;;;;;;;4.68;1.48;;;7.50;94.70;;;;;;5042671;28;20040;-79
2020/12/07 13:19:22;;;;;;;6.55;1.60;;;7.60;94.60;;;;;;5038961;28;20045;-79
2020/12/07 13:29:44;;;;;;;6.40;2.30;;;7.50;94.60;;;;;;5041745;28;20044;-80
2020/12/07 13:32:10;;;;;;;8.50;2.47;;;7.50;94.70;;;;;;5053537;28;20087;-80
2020/12/07 13:34:36;;;;;;;6.32;1.90;;;7.50;95.00;;;;;;5053212;28;20044;-81
2020/12/07 13:37:02;;;;;;;6.00;2.10;;;7.50;94.50;;;;;;5052398;28;20033;-81
2020/12/07 13:39:28;;;;;;;6.07;2.22;;;7.50;94.70;;;;;;5054389;28;20087;-80
2020/12/07 13:41:54;;;;;;;10.65;2.50;;;7.50;94.70;;;;;;5053432;28;20037;-81
2020/12/07 13:44:20;;;;;;;8.48;1.85;;;7.40;94.80;;;;;;5052595;28;20040;-81
2020/12/07 13:46:46;;;;;;;5.18;1.95;;;7.50;94.70;;;;;;5053778;28;20108;-80
2020/12/07 13:49:32;;;;;;;6.07;1.83;;;7.50;94.60;;;;;;5031011;28;20554;-80
2020/12/07 13:52:12;;;;;;;7.10;1.77;;;7.40;94.30;;;;;;5035921;28;20029;-80
2020/12/07 13:54:38;;;;;;;8.02;2.00;;;7.40;94.10;;;;;;5051767;28;20441;-80
2020/12/07 13:57:04;;;;;;;7.57;1.75;;;7.40;94.20;;;;;;5052012;28;20056;-80
2020/12/07 13:59:32;;;;;;;6.32;1.70;;;7.40;94.20;;;;;;5052581;28;20072;-80
2020/12/07 14:02:18;;;;;;;6.28;1.60;;;7.40;94.30;;;;;;5051332;28;20037;-80